createdAt,value
2018-01-30T00:00:11.905Z,5.00
2018-01-30T00:02:40.004Z,5.00
2018-01-30T00:05:08.140Z,5.00
2018-01-30T00:07:37.151Z,5.00
2018-01-30T00:10:05.256Z,4.90
2018-01-30T00:12:34.151Z,4.90
2018-01-30T00:15:02.273Z,4.90
2018-01-30T00:17:31.448Z,4.90
2018-01-30T00:19:59.609Z,5.00
2018-01-30T00:22:27.829Z,5.00
2018-01-30T00:24:55.984Z,5.00
2018-01-30T00:27:24.097Z,5.00
2018-01-30T00:29:52.179Z,5.00
2018-01-30T00:32:20.276Z,5.00
2018-01-30T00:34:48.531Z,5.00
2018-01-30T00:37:17.450Z,5.10
2018-01-30T00:39:45.634Z,5.10
2018-01-30T00:42:13.792Z,5.10
2018-01-30T00:44:42.734Z,5.20
2018-01-30T00:47:10.864Z,5.20
2018-01-30T00:49:39.018Z,5.30
2018-01-30T00:52:07.230Z,5.30
2018-01-30T00:54:36.184Z,5.30
2018-01-30T00:57:04.275Z,5.20
2018-01-30T00:59:32.450Z,5.20
2018-01-30T01:02:00.578Z,5.20
2018-01-30T01:04:28.676Z,5.10
2018-01-30T01:06:57.626Z,4.90
2018-01-30T01:09:25.750Z,5.00
2018-01-30T01:11:54.515Z,5.00
2018-01-30T01:14:23.502Z,5.00
2018-01-30T01:16:51.644Z,5.00
2018-01-30T01:19:32.907Z,5.10
2018-01-30T01:22:01.000Z,5.10
2018-01-30T01:24:29.096Z,5.10
2018-01-30T01:26:57.196Z,5.00
2018-01-30T01:29:25.315Z,5.00
2018-01-30T01:31:55.463Z,5.00
2018-01-30T01:34:23.759Z,5.00
2018-01-30T01:36:51.867Z,5.10
2018-01-30T01:39:20.037Z,5.10
2018-01-30T01:41:48.230Z,5.10
2018-01-30T01:44:16.318Z,5.10
2018-01-30T01:46:44.425Z,5.20
2018-01-30T01:49:12.538Z,5.20
2018-01-30T01:51:41.608Z,5.20
2018-01-30T01:54:09.732Z,5.20
2018-01-30T01:56:37.973Z,5.20
2018-01-30T01:59:06.113Z,5.20
2018-01-30T02:01:34.257Z,5.20
2018-01-30T02:04:02.385Z,5.20
2018-01-30T02:06:30.493Z,5.10
2018-01-30T02:08:58.711Z,5.10
2018-01-30T02:11:26.815Z,5.10
2018-01-30T02:13:55.860Z,5.10
2018-01-30T02:16:23.948Z,5.00
2018-01-30T02:18:53.075Z,5.00
2018-01-30T02:21:21.307Z,4.90
2018-01-30T02:23:49.388Z,4.90
2018-01-30T02:26:17.512Z,4.90
2018-01-30T02:28:45.619Z,4.90
2018-01-30T02:31:14.788Z,4.80
2018-01-30T02:33:51.589Z,4.80
2018-01-30T02:36:19.693Z,4.70
2018-01-30T02:38:48.848Z,4.70
2018-01-30T02:41:20.614Z,4.70
2018-01-30T02:43:49.722Z,4.70
2018-01-30T02:46:17.877Z,4.60
2018-01-30T02:48:50.574Z,4.60
2018-01-30T02:51:18.707Z,4.60
2018-01-30T02:53:47.859Z,4.70
2018-01-30T02:56:15.939Z,4.90
2018-01-30T02:58:44.142Z,4.90
2018-01-30T03:01:16.081Z,5.00
2018-01-30T03:03:44.175Z,4.90
2018-01-30T03:06:12.433Z,4.90
2018-01-30T03:08:40.500Z,4.90
2018-01-30T03:11:08.650Z,4.80
2018-01-30T03:13:38.830Z,4.70
2018-01-30T03:16:06.951Z,4.70
2018-01-30T03:18:35.090Z,4.70
2018-01-30T03:21:11.403Z,4.60
2018-01-30T03:23:39.539Z,4.60
2018-01-30T03:26:07.643Z,4.50
2018-01-30T03:28:48.809Z,4.50
2018-01-30T03:31:16.906Z,4.50
2018-01-30T03:33:45.937Z,4.40
2018-01-30T03:36:14.202Z,4.40
2018-01-30T03:38:42.398Z,4.40
2018-01-30T03:41:22.363Z,4.50
2018-01-30T03:43:51.224Z,4.50
2018-01-30T03:46:19.351Z,4.50
2018-01-30T03:48:49.367Z,4.50
2018-01-30T03:51:17.522Z,4.50
2018-01-30T03:53:45.769Z,4.40
2018-01-30T03:56:14.856Z,4.50
2018-01-30T03:58:43.040Z,4.50
2018-01-30T04:01:11.147Z,4.50
2018-01-30T04:07:20.483Z,4.50
2018-01-30T04:09:48.603Z,4.50
2018-01-30T04:12:20.206Z,4.50
2018-01-30T04:14:49.420Z,4.60
2018-01-30T04:17:19.457Z,4.50
2018-01-30T04:19:47.701Z,4.60
2018-01-30T04:22:17.873Z,4.70
2018-01-30T04:24:47.017Z,4.80
2018-01-30T04:27:15.245Z,4.80
2018-01-30T04:29:43.473Z,4.80
2018-01-30T04:32:13.624Z,4.80
2018-01-30T04:34:42.469Z,4.60
2018-01-30T04:37:13.954Z,4.60
2018-01-30T04:39:42.120Z,4.50
2018-01-30T04:42:10.211Z,4.50
2018-01-30T04:44:45.997Z,4.60
2018-01-30T04:47:32.218Z,4.60
2018-01-30T04:54:55.835Z,4.50
2018-01-30T04:57:24.031Z,4.40
2018-01-30T04:59:52.120Z,4.30
2018-01-30T05:05:20.063Z,4.30
2018-01-30T05:07:48.334Z,4.40
2018-01-30T05:10:19.834Z,4.40
2018-01-30T05:12:48.306Z,4.40
2018-01-30T05:15:16.524Z,4.40
2018-01-30T05:20:45.954Z,4.30
2018-01-30T05:23:19.984Z,4.30
2018-01-30T05:25:48.140Z,4.20
2018-01-30T05:28:17.033Z,4.20
2018-01-30T05:30:48.339Z,4.20
2018-01-30T05:33:23.901Z,4.20
2018-01-30T05:39:04.149Z,4.10
2018-01-30T05:41:32.256Z,4.10
2018-01-30T05:46:58.300Z,4.10
2018-01-30T05:49:26.463Z,4.10
2018-01-30T05:51:54.564Z,4.00
2018-01-30T05:54:23.475Z,3.90
2018-01-30T06:03:01.603Z,3.90
2018-01-30T06:21:11.331Z,3.90
2018-01-30T06:23:41.410Z,3.90
2018-01-30T06:26:09.811Z,3.90
2018-01-30T06:37:43.378Z,3.90
2018-01-30T06:40:13.553Z,3.80
2018-01-30T07:04:51.591Z,3.90
2018-01-30T07:10:29.842Z,3.90
2018-01-30T07:12:59.004Z,3.80
2018-01-30T07:27:56.039Z,3.90
2018-01-30T07:40:57.764Z,4.00
2018-01-30T07:43:26.098Z,4.10
2018-01-30T07:46:07.995Z,4.00
2018-01-30T07:48:36.091Z,4.00
2018-01-30T07:51:04.203Z,4.00
2018-01-30T07:53:32.312Z,4.00
2018-01-30T07:56:00.561Z,4.00
2018-01-30T07:58:28.690Z,4.00
2018-01-30T08:00:56.844Z,4.00
2018-01-30T08:03:25.931Z,4.00
2018-01-30T08:12:20.533Z,4.00
2018-01-30T08:14:48.766Z,4.00
2018-01-30T08:17:16.887Z,4.20
2018-01-30T08:22:56.386Z,4.20
2018-01-30T08:25:24.488Z,4.30
2018-01-30T08:27:54.597Z,4.30
2018-01-30T08:30:33.149Z,4.40
2018-01-30T08:33:02.034Z,4.50
2018-01-30T08:35:30.610Z,4.50
2018-01-30T08:38:00.598Z,4.60
2018-01-30T08:40:29.754Z,4.60
2018-01-30T08:42:58.829Z,4.70
2018-01-30T08:45:27.064Z,4.70
2018-01-30T08:47:55.266Z,4.70
2018-01-30T08:50:23.475Z,4.80
2018-01-30T08:52:51.596Z,4.80
2018-01-30T08:55:19.694Z,4.80
2018-01-30T08:57:47.794Z,4.90
2018-01-30T09:00:15.888Z,4.90
2018-01-30T09:05:43.848Z,5.00
2018-01-30T09:08:13.178Z,5.00
2018-01-30T09:10:42.293Z,5.10
2018-01-30T09:13:11.291Z,5.10
2018-01-30T09:15:40.491Z,5.20
2018-01-30T09:18:08.675Z,5.20
2018-01-30T09:20:36.793Z,5.30
2018-01-30T09:23:04.917Z,5.30
2018-01-30T09:25:33.174Z,5.30
2018-01-30T09:28:01.251Z,5.30
2018-01-30T09:30:29.432Z,5.40
2018-01-30T09:33:00.662Z,5.40
2018-01-30T09:35:28.936Z,5.40
2018-01-30T09:37:58.974Z,5.50
2018-01-30T09:40:27.079Z,5.50
2018-01-30T09:42:56.421Z,5.60
2018-01-30T09:45:24.762Z,5.50
2018-01-30T09:47:54.065Z,5.60
2018-01-30T09:50:22.155Z,5.60
2018-01-30T09:52:50.254Z,5.70
2018-01-30T09:55:24.636Z,5.80
2018-01-30T09:57:52.775Z,5.80
2018-01-30T10:00:24.133Z,5.90
2018-01-30T10:02:52.235Z,6.00
2018-01-30T10:05:27.252Z,5.90
2018-01-30T10:07:55.374Z,5.70
2018-01-30T10:10:23.469Z,5.60
2018-01-30T10:12:51.577Z,5.50
2018-01-30T10:15:21.524Z,5.60
2018-01-30T10:17:50.093Z,5.60
2018-01-30T10:20:18.390Z,5.60
2018-01-30T10:22:47.418Z,5.60
2018-01-30T10:25:15.545Z,5.60
2018-01-30T10:27:43.868Z,5.70
2018-01-30T10:30:11.981Z,5.80
2018-01-30T10:32:43.266Z,6.00
2018-01-30T10:35:11.391Z,6.10
2018-01-30T10:37:39.480Z,6.30
2018-01-30T10:40:07.598Z,6.30
2018-01-30T10:42:39.450Z,6.30
2018-01-30T10:45:07.684Z,6.20
2018-01-30T10:47:37.791Z,6.20
2018-01-30T10:50:05.947Z,6.30
2018-01-30T10:52:35.118Z,6.40
2018-01-30T10:58:19.752Z,6.40
2018-01-30T11:00:47.910Z,6.40
2018-01-30T11:03:15.993Z,6.40
2018-01-30T11:05:46.831Z,6.60
2018-01-30T11:08:14.943Z,6.60
2018-01-30T11:10:52.007Z,6.60
2018-01-30T11:16:20.994Z,6.50
2018-01-30T11:18:50.141Z,6.50
2018-01-30T11:21:18.308Z,6.50
2018-01-30T11:23:47.355Z,6.50
2018-01-30T11:26:17.373Z,6.40
2018-01-30T11:28:45.568Z,6.40
2018-01-30T11:31:13.742Z,6.50
2018-01-30T11:33:45.842Z,6.60
2018-01-30T11:36:13.970Z,6.60
2018-01-30T11:38:47.270Z,6.60
2018-01-30T11:41:19.313Z,6.50
2018-01-30T11:43:49.357Z,6.50
2018-01-30T11:46:17.454Z,6.40
2018-01-30T11:48:45.576Z,6.30
2018-01-30T11:51:14.095Z,6.20
2018-01-30T11:53:42.382Z,6.20
2018-01-30T11:56:28.138Z,6.30
2018-01-30T11:58:57.364Z,6.20
2018-01-30T12:01:35.747Z,6.20
2018-01-30T12:04:03.960Z,6.10
2018-01-30T12:06:32.087Z,6.00
2018-01-30T12:09:00.207Z,5.90
2018-01-30T12:14:40.039Z,5.80
2018-01-30T12:17:11.708Z,5.90
2018-01-30T12:19:39.786Z,6.10
2018-01-30T12:22:08.934Z,6.20
2018-01-30T12:24:37.139Z,6.40
2018-01-30T12:27:07.356Z,6.60
2018-01-30T12:29:37.395Z,6.60
2018-01-30T12:32:11.608Z,6.60
2018-01-30T12:34:40.758Z,6.60
2018-01-30T12:37:09.829Z,6.70
2018-01-30T12:39:43.851Z,6.70
2018-01-30T12:42:11.956Z,6.70
2018-01-30T12:44:51.543Z,6.90
2018-01-30T12:47:20.587Z,7.00
2018-01-30T12:49:48.794Z,7.10
2018-01-30T12:52:20.659Z,7.30
2018-01-30T12:54:49.724Z,7.30
2018-01-30T12:57:19.066Z,7.10
2018-01-30T12:59:49.360Z,7.10
2018-01-30T13:02:19.460Z,6.80
2018-01-30T13:04:48.530Z,6.70
2018-01-30T13:07:18.591Z,6.60
2018-01-30T13:09:46.794Z,6.60
2018-01-30T13:12:15.638Z,6.30
2018-01-30T13:14:43.796Z,6.40
2018-01-30T13:17:15.694Z,6.30
2018-01-30T13:19:49.696Z,6.20
2018-01-30T13:22:17.779Z,6.20
2018-01-30T13:24:47.984Z,6.20
2018-01-30T13:27:16.118Z,6.20
2018-01-30T13:29:44.209Z,6.20
2018-01-30T13:32:12.340Z,6.20
2018-01-30T13:34:40.558Z,6.20
2018-01-30T13:37:08.641Z,6.20
2018-01-30T13:39:36.822Z,6.40
2018-01-30T13:42:04.943Z,6.40
2018-01-30T13:44:33.196Z,6.40
2018-01-30T13:47:02.283Z,6.40
2018-01-30T13:49:31.408Z,6.40
2018-01-30T13:52:08.818Z,6.40
2018-01-30T13:54:38.586Z,6.40
2018-01-30T13:57:06.687Z,6.40
2018-01-30T13:59:40.734Z,6.40
2018-01-30T14:02:25.667Z,6.50
2018-01-30T14:04:53.779Z,6.50
2018-01-30T14:07:22.501Z,6.60
2018-01-30T14:09:52.172Z,6.60
2018-01-30T14:12:20.444Z,6.60
2018-01-30T14:14:49.443Z,6.60
2018-01-30T14:17:17.599Z,6.70
2018-01-30T14:19:49.905Z,6.70
2018-01-30T14:22:18.028Z,6.70
2018-01-30T14:24:46.117Z,6.70
2018-01-30T14:27:14.647Z,6.70
2018-01-30T14:29:43.682Z,6.70
2018-01-30T14:32:11.807Z,6.70
2018-01-30T14:34:39.918Z,6.70
2018-01-30T14:37:08.015Z,6.70
2018-01-30T14:39:41.094Z,6.70
2018-01-30T14:42:09.174Z,6.60
2018-01-30T14:44:42.630Z,6.60
2018-01-30T14:47:10.736Z,6.60
2018-01-30T14:49:38.859Z,6.50
2018-01-30T14:52:07.321Z,6.40
2018-01-30T14:54:36.376Z,6.40
2018-01-30T14:57:10.994Z,6.40
2018-01-30T14:59:39.087Z,6.30
2018-01-30T15:02:12.528Z,6.30
2018-01-30T15:04:41.649Z,6.30
2018-01-30T15:07:12.788Z,6.30
2018-01-30T15:09:42.866Z,6.30
2018-01-30T15:12:11.146Z,6.40
2018-01-30T15:14:39.313Z,6.40
2018-01-30T15:17:07.462Z,6.30
2018-01-30T15:22:41.761Z,6.20
2018-01-30T15:25:11.830Z,6.20
2018-01-30T15:27:39.964Z,6.20
2018-01-30T15:30:10.079Z,6.20
2018-01-30T15:32:38.202Z,6.10
2018-01-30T15:35:19.077Z,6.10
2018-01-30T15:37:47.179Z,6.10
2018-01-30T15:40:17.231Z,6.00
2018-01-30T15:42:45.351Z,6.10
2018-01-30T15:45:13.552Z,6.10
2018-01-30T15:47:41.664Z,6.00
2018-01-30T15:50:09.986Z,6.00
2018-01-30T15:52:39.197Z,6.00
2018-01-30T15:55:07.339Z,6.00
2018-01-30T15:57:35.717Z,6.10
2018-01-30T16:00:04.135Z,6.00
2018-01-30T16:02:32.261Z,6.00
2018-01-30T16:05:01.380Z,6.00
2018-01-30T16:07:43.338Z,6.00
2018-01-30T16:10:20.006Z,6.00
2018-01-30T16:12:49.195Z,6.00
2018-01-30T16:15:17.358Z,6.00
2018-01-30T16:17:49.382Z,6.00
2018-01-30T16:20:18.495Z,6.00
2018-01-30T16:22:46.595Z,6.00
2018-01-30T16:25:17.673Z,5.90
2018-01-30T16:27:46.701Z,5.90
2018-01-30T16:30:14.916Z,5.90
2018-01-30T16:32:44.947Z,5.90
2018-01-30T16:35:14.127Z,5.90
2018-01-30T16:37:42.238Z,5.90
2018-01-30T16:40:10.508Z,5.90
2018-01-30T16:42:38.649Z,5.90
2018-01-30T16:45:06.869Z,5.90
2018-01-30T16:47:35.942Z,5.90
2018-01-30T16:50:04.145Z,5.90
2018-01-30T16:52:34.387Z,5.90
2018-01-30T16:55:02.478Z,5.80
2018-01-30T16:57:31.396Z,5.80
2018-01-30T17:00:03.596Z,5.70
2018-01-30T17:02:31.751Z,5.70
2018-01-30T17:04:59.934Z,5.70
2018-01-30T17:07:28.844Z,5.60
2018-01-30T17:09:57.982Z,5.60
2018-01-30T17:12:28.031Z,5.70
2018-01-30T17:14:56.174Z,5.60
2018-01-30T17:17:24.283Z,5.60
2018-01-30T17:19:52.543Z,5.60
2018-01-30T17:22:20.675Z,5.60
2018-01-30T17:24:48.856Z,5.60
2018-01-30T17:27:17.964Z,5.70
2018-01-30T17:29:47.114Z,5.60
2018-01-30T17:32:17.348Z,5.60
2018-01-30T17:34:45.451Z,5.60
2018-01-30T17:37:13.664Z,5.60
2018-01-30T17:39:41.754Z,5.50
2018-01-30T17:42:12.790Z,5.60
2018-01-30T17:44:41.895Z,5.60
2018-01-30T17:47:10.031Z,5.50
2018-01-30T17:49:38.906Z,5.50
2018-01-30T17:52:13.458Z,5.50
2018-01-30T17:54:43.600Z,5.50
2018-01-30T17:57:17.019Z,5.50
2018-01-30T17:59:45.106Z,5.60
2018-01-30T18:02:13.246Z,5.50
2018-01-30T18:04:41.382Z,5.60
2018-01-30T18:07:11.505Z,5.60
2018-01-30T18:09:39.617Z,5.60
2018-01-30T18:12:07.735Z,5.60
2018-01-30T18:14:35.836Z,5.50
2018-01-30T18:17:05.999Z,5.50
2018-01-30T18:19:37.324Z,5.50
2018-01-30T18:22:05.449Z,5.40
2018-01-30T18:24:39.730Z,5.30
2018-01-30T18:27:07.906Z,5.10
2018-01-30T18:29:37.011Z,5.00
2018-01-30T18:32:05.195Z,4.90
2018-01-30T18:34:33.298Z,4.80
2018-01-30T18:37:01.442Z,4.70
2018-01-30T18:39:30.538Z,4.70
2018-01-30T18:41:58.616Z,4.60
2018-01-30T18:44:26.728Z,4.50
2018-01-30T18:46:54.967Z,4.50
2018-01-30T18:49:23.043Z,4.40
2018-01-30T18:51:52.115Z,4.40
2018-01-30T18:54:20.293Z,4.30
2018-01-30T18:56:48.931Z,4.30
2018-01-30T18:59:17.041Z,4.20
2018-01-30T19:01:45.190Z,4.10
2018-01-30T19:04:14.315Z,4.10
2018-01-30T19:06:42.456Z,4.00
2018-01-30T19:09:10.567Z,3.90
2018-01-30T19:11:38.735Z,4.00
2018-01-30T19:14:08.757Z,3.90
2018-01-30T19:16:36.937Z,3.90
2018-01-30T19:19:05.066Z,3.80
2018-01-30T19:21:33.164Z,3.80
2018-01-30T19:24:01.283Z,3.80
2018-01-30T19:26:33.900Z,3.80
2018-01-30T19:29:03.020Z,3.80
2018-01-30T19:31:31.108Z,3.80
2018-01-30T19:34:00.303Z,3.90
2018-01-30T19:36:38.585Z,3.90
2018-01-30T19:39:07.652Z,3.90
2018-01-30T19:41:35.860Z,3.80
2018-01-30T19:44:04.028Z,3.80
2018-01-30T19:46:33.436Z,3.80
2018-01-30T19:49:02.595Z,3.90
2018-01-30T19:51:31.797Z,3.90
2018-01-30T19:53:59.989Z,3.90
2018-01-30T19:56:29.248Z,3.90
2018-01-30T19:58:57.395Z,3.90
2018-01-30T20:01:25.540Z,3.90
2018-01-30T20:03:54.378Z,3.90
2018-01-30T20:06:22.517Z,3.90
2018-01-30T20:08:50.681Z,3.90
2018-01-30T20:11:19.826Z,3.90
2018-01-30T20:13:52.282Z,3.80
2018-01-30T20:16:20.519Z,3.80
2018-01-30T20:18:50.582Z,3.80
2018-01-30T20:21:18.757Z,3.80
2018-01-30T20:23:46.874Z,3.70
2018-01-30T20:26:14.982Z,3.70
2018-01-30T20:28:43.197Z,3.70
2018-01-30T20:31:25.961Z,3.70
2018-01-30T20:42:57.926Z,3.50
2018-01-30T20:45:26.082Z,3.50
2018-01-30T20:54:14.535Z,3.50
2018-01-30T21:05:48.504Z,3.40
2018-01-30T21:08:23.471Z,3.30
2018-01-30T21:10:51.762Z,3.30
2018-01-30T21:16:30.845Z,3.30
2018-01-30T21:50:36.119Z,3.30
